createdAt,value
2022-11-15T00:01:19.130Z,100823.63
2022-11-15T00:03:47.522Z,100822.44
2022-11-15T00:06:15.645Z,100817.94
2022-11-15T00:08:43.707Z,100819.41
2022-11-15T00:11:13.642Z,100813.69
2022-11-15T00:13:43.050Z,100813.94
2022-11-15T00:16:12.264Z,100813.13
2022-11-15T00:18:40.743Z,100810.91
2022-11-15T00:21:12.294Z,100813.22
2022-11-15T00:23:40.202Z,100810.19
2022-11-15T00:26:08.492Z,100811.81
2022-11-15T00:28:36.468Z,100813.03
2022-11-15T00:31:08.515Z,100807.34
2022-11-15T00:33:36.917Z,100811.56
2022-11-15T00:36:06.323Z,100809.84
2022-11-15T00:38:35.784Z,100805.59
2022-11-15T00:41:09.014Z,100807.16
2022-11-15T00:43:37.709Z,100807.72
2022-11-15T00:46:09.210Z,100810.56
2022-11-15T00:48:37.299Z,100811.22
2022-11-15T00:51:05.436Z,100811.84
2022-11-15T00:53:34.761Z,100821.34
2022-11-15T00:56:02.899Z,100811.84
2022-11-15T00:58:30.858Z,100805.69
2022-11-15T01:00:58.925Z,100811.50
2022-11-15T01:03:28.748Z,100818.28
2022-11-15T01:06:01.220Z,100810.09
2022-11-15T01:08:29.340Z,100818.94
2022-11-15T01:11:02.035Z,100807.25
2022-11-15T01:13:33.672Z,100820.97
2022-11-15T01:16:02.161Z,100806.34
2022-11-15T01:18:31.537Z,100803.84
2022-11-15T01:20:59.698Z,100794.00
2022-11-15T01:23:28.281Z,100795.53
2022-11-15T01:26:01.208Z,100797.56
2022-11-15T01:28:32.692Z,100796.91
2022-11-15T01:31:01.810Z,100794.63
2022-11-15T01:33:32.396Z,100791.31
2022-11-15T01:36:07.175Z,100792.16
2022-11-15T01:38:35.215Z,100788.47
2022-11-15T01:41:03.295Z,100791.13
2022-11-15T01:43:34.196Z,100787.47
2022-11-15T01:46:06.551Z,100783.13
2022-11-15T01:48:37.309Z,100785.63
2022-11-15T01:51:09.206Z,100781.28
2022-11-15T01:53:41.262Z,100783.31
2022-11-15T01:56:13.409Z,100775.00
2022-11-15T01:58:43.260Z,100769.66
2022-11-15T02:01:11.333Z,100765.34
2022-11-15T02:03:50.894Z,100760.75
2022-11-15T02:06:19.895Z,100762.78
2022-11-15T02:08:48.135Z,100754.78
2022-11-15T02:11:16.159Z,100755.59
2022-11-15T02:13:45.035Z,100758.44
2022-11-15T02:16:25.303Z,100758.44
2022-11-15T02:19:01.980Z,100745.63
2022-11-15T02:21:39.349Z,100746.88
2022-11-15T02:24:36.915Z,100744.91
2022-11-15T02:27:41.314Z,100747.47
2022-11-15T02:30:40.285Z,100741.69
2022-11-15T02:33:24.252Z,100747.84
2022-11-15T02:36:01.109Z,100751.34
2022-11-15T02:38:36.400Z,100755.28
2022-11-15T02:41:07.858Z,100753.28
2022-11-15T02:43:57.686Z,100754.47
2022-11-15T02:46:51.566Z,100754.28
2022-11-15T02:49:20.582Z,100747.09
2022-11-15T02:51:51.419Z,100752.25
2022-11-15T02:54:24.458Z,100747.75
2022-11-15T02:56:57.004Z,100750.44
2022-11-15T03:00:01.507Z,100754.94
2022-11-15T03:02:44.467Z,100757.97
2022-11-15T03:05:22.371Z,100748.22
2022-11-15T03:08:02.120Z,100749.56
2022-11-15T03:10:39.937Z,100745.25
2022-11-15T03:13:19.020Z,100745.25
2022-11-15T03:15:55.715Z,100753.06
2022-11-15T03:18:34.210Z,100752.41
2022-11-15T03:21:08.088Z,100741.94
2022-11-15T03:23:38.715Z,100742.31
2022-11-15T03:26:11.317Z,100731.66
2022-11-15T03:28:43.597Z,100741.47
2022-11-15T03:31:29.433Z,100743.50
2022-11-15T03:34:01.226Z,100741.19
2022-11-15T03:36:35.202Z,100738.53
2022-11-15T03:39:07.368Z,100728.03
2022-11-15T03:41:42.768Z,100734.94
2022-11-15T03:44:21.125Z,100743.56
2022-11-15T03:46:54.886Z,100744.59
2022-11-15T03:49:28.980Z,100741.94
2022-11-15T03:51:59.420Z,100739.06
2022-11-15T03:54:27.995Z,100735.38
2022-11-15T03:56:55.936Z,100736.22
2022-11-15T03:59:23.927Z,100741.19
2022-11-15T04:01:51.968Z,100744.97
2022-11-15T04:04:19.908Z,100745.81
2022-11-15T04:06:49.348Z,100751.16
2022-11-15T04:09:17.349Z,100750.50
2022-11-15T04:11:45.320Z,100758.03
2022-11-15T04:14:13.301Z,100754.06
2022-11-15T04:16:43.992Z,100766.09
2022-11-15T04:19:30.637Z,100756.81
2022-11-15T04:22:17.978Z,100756.97
2022-11-15T04:24:46.743Z,100760.66
2022-11-15T04:27:14.943Z,100754.66
2022-11-15T04:29:42.886Z,100757.16
2022-11-15T04:32:11.343Z,100755.97
2022-11-15T04:34:40.603Z,100753.31
2022-11-15T04:37:14.875Z,100760.47
2022-11-15T04:39:43.370Z,100767.47
2022-11-15T04:42:11.732Z,100769.78
2022-11-15T04:44:40.129Z,100770.63
2022-11-15T04:47:08.079Z,100779.44
2022-11-15T04:49:36.049Z,100774.28
2022-11-15T04:52:04.051Z,100782.47
2022-11-15T04:54:33.885Z,100775.47
2022-11-15T04:57:02.536Z,100778.97
2022-11-15T04:59:30.594Z,100775.34
2022-11-15T05:02:04.022Z,100769.56
2022-11-15T05:04:31.020Z,100774.59
2022-11-15T05:06:58.983Z,100767.59
2022-11-15T05:09:27.036Z,100769.44
2022-11-15T05:11:57.036Z,100766.31
2022-11-15T05:14:25.226Z,100776.97
2022-11-15T05:16:53.227Z,100778.44
2022-11-15T05:19:21.165Z,100761.59
2022-11-15T05:21:49.799Z,100769.44
2022-11-15T05:24:18.615Z,100768.25
2022-11-15T05:26:46.757Z,100776.06
2022-11-15T05:29:16.140Z,100782.91
2022-11-15T05:31:44.562Z,100768.91
2022-11-15T05:34:12.667Z,100767.06
2022-11-15T05:36:45.814Z,100773.22
2022-11-15T05:39:13.795Z,100772.75
2022-11-15T05:41:46.317Z,100764.09
2022-11-15T05:44:19.911Z,100770.63
2022-11-15T05:46:49.475Z,100765.84
2022-11-15T05:49:22.150Z,100776.84
2022-11-15T05:51:51.561Z,100785.81
2022-11-15T05:54:21.727Z,100787.50
2022-11-15T05:56:51.264Z,100789.34
2022-11-15T05:59:21.149Z,100788.66
2022-11-15T06:01:49.156Z,100800.16
2022-11-15T06:04:17.131Z,100792.97
2022-11-15T06:06:45.165Z,100791.84
2022-11-15T06:09:13.108Z,100800.66
2022-11-15T06:11:41.106Z,100790.31
2022-11-15T06:14:09.229Z,100801.97
2022-11-15T06:16:38.559Z,100806.47
2022-11-15T06:19:08.146Z,100806.47
2022-11-15T06:21:36.102Z,100805.66
2022-11-15T06:24:05.522Z,100800.16
2022-11-15T06:26:33.561Z,100810.66
2022-11-15T06:29:01.732Z,100810.66
2022-11-15T06:31:29.622Z,100809.50
2022-11-15T06:33:58.952Z,100807.66
2022-11-15T06:36:28.082Z,100812.66
2022-11-15T06:38:56.953Z,100817.31
2022-11-15T06:41:24.928Z,100818.31
2022-11-15T06:43:52.867Z,100822.19
2022-11-15T06:46:20.879Z,100817.22
2022-11-15T06:48:50.265Z,100837.22
2022-11-15T06:51:20.035Z,100832.94
2022-11-15T06:53:48.269Z,100823.97
2022-11-15T06:56:16.339Z,100842.69
2022-11-15T06:58:44.328Z,100826.09
2022-11-15T07:01:13.969Z,100830.44
2022-11-15T07:03:43.820Z,100844.44
2022-11-15T07:06:12.289Z,100836.47
2022-11-15T07:08:42.736Z,100844.44
2022-11-15T07:11:11.838Z,100851.09
2022-11-15T07:13:39.866Z,100861.25
2022-11-15T07:16:10.599Z,100863.63
2022-11-15T07:18:39.856Z,100862.13
2022-11-15T07:21:10.616Z,100867.28
2022-11-15T07:23:39.285Z,100874.44
2022-11-15T07:26:09.572Z,100865.28
2022-11-15T07:28:38.092Z,100868.28
2022-11-15T07:31:07.413Z,100877.63
2022-11-15T07:33:35.583Z,100877.97
2022-11-15T07:36:07.388Z,100873.31
2022-11-15T07:38:42.434Z,100884.31
2022-11-15T07:41:12.580Z,100882.97
2022-11-15T07:43:40.679Z,100882.47
2022-11-15T07:46:10.904Z,100890.78
2022-11-15T07:48:44.628Z,100894.97
2022-11-15T07:51:15.003Z,100897.78
2022-11-15T07:53:43.223Z,100902.13
2022-11-15T07:56:13.336Z,100900.78
2022-11-15T07:58:41.349Z,100910.59
2022-11-15T08:01:11.169Z,100900.28
2022-11-15T08:03:39.749Z,100904.78
2022-11-15T08:06:07.978Z,100901.13
2022-11-15T08:08:35.963Z,100907.44
2022-11-15T08:11:04.237Z,100908.59
2022-11-15T08:13:33.913Z,100910.41
2022-11-15T08:16:02.967Z,100917.75
2022-11-15T08:18:31.150Z,100926.72
2022-11-15T08:21:01.961Z,100902.78
2022-11-15T08:23:30.432Z,100911.59
2022-11-15T08:26:03.415Z,100916.56
2022-11-15T08:28:33.606Z,100928.03
2022-11-15T08:31:01.571Z,100927.22
2022-11-15T08:33:30.480Z,100918.75
2022-11-15T08:36:01.230Z,100915.91
2022-11-15T08:38:31.750Z,100923.88
2022-11-15T08:41:07.292Z,100924.91
2022-11-15T08:43:36.683Z,100939.34
2022-11-15T08:46:04.823Z,100943.69
2022-11-15T08:48:33.176Z,100931.53
2022-11-15T08:51:01.249Z,100945.00
2022-11-15T08:53:29.361Z,100950.97
2022-11-15T08:55:57.393Z,100952.00
2022-11-15T08:58:25.443Z,100938.00
2022-11-15T09:00:54.860Z,100943.66
2022-11-15T09:03:22.882Z,100938.34
2022-11-15T09:05:51.143Z,100938.66
2022-11-15T09:08:46.162Z,100939.13
2022-11-15T09:11:08.298Z,100955.59
2022-11-15T09:13:37.978Z,100939.81
2022-11-15T09:16:08.233Z,100934.16
2022-11-15T09:18:37.022Z,100934.00
2022-11-15T09:21:05.454Z,100940.97
2022-11-15T09:23:33.455Z,100937.97
2022-11-15T09:26:03.913Z,100939.66
2022-11-15T09:28:32.977Z,100939.00
2022-11-15T09:31:02.485Z,100951.47
2022-11-15T09:33:31.942Z,100954.66
2022-11-15T09:36:03.680Z,100949.50
2022-11-15T09:38:32.425Z,100975.25
2022-11-15T09:41:39.057Z,100965.13
2022-11-15T09:44:28.565Z,100970.75
2022-11-15T09:47:08.938Z,100977.28
2022-11-15T09:49:38.692Z,100967.13
2022-11-15T09:52:06.914Z,100963.47
2022-11-15T09:54:52.687Z,100977.28
2022-11-15T09:57:26.766Z,100976.28
2022-11-15T10:00:30.766Z,100981.44
2022-11-15T10:03:06.555Z,100966.31
2022-11-15T10:05:41.119Z,100971.47
2022-11-15T10:08:28.175Z,100967.66
2022-11-15T10:11:22.698Z,100962.00
2022-11-15T10:13:50.512Z,100961.81
2022-11-15T10:16:45.949Z,100956.66
2022-11-15T10:19:26.212Z,100971.31
2022-11-15T10:22:06.660Z,100967.66
2022-11-15T10:24:38.094Z,100964.63
2022-11-15T10:27:14.194Z,100974.13
2022-11-15T10:29:46.414Z,100973.63
2022-11-15T10:32:15.912Z,100977.44
2022-11-15T10:34:45.674Z,100972.63
2022-11-15T10:37:15.599Z,100970.63
2022-11-15T10:39:43.718Z,100969.13
2022-11-15T10:42:20.754Z,100990.25
2022-11-15T10:44:48.833Z,100981.63
2022-11-15T10:47:26.472Z,100989.78
2022-11-15T10:50:03.453Z,100981.94
2022-11-15T10:52:35.415Z,100983.59
2022-11-15T10:55:09.019Z,100977.28
2022-11-15T10:57:40.268Z,100981.94
2022-11-15T11:00:28.310Z,100978.94
2022-11-15T11:03:00.504Z,100982.09
2022-11-15T11:05:36.573Z,100983.59
2022-11-15T11:08:25.151Z,100988.59
2022-11-15T11:11:02.535Z,100982.25
2022-11-15T11:13:32.725Z,100992.09
2022-11-15T11:16:28.120Z,100990.25
2022-11-15T11:19:04.124Z,100991.91
2022-11-15T11:21:43.524Z,100980.28
2022-11-15T11:24:26.540Z,100980.94
2022-11-15T11:27:07.782Z,100983.75
2022-11-15T11:29:54.526Z,100996.56
2022-11-15T11:32:36.749Z,100976.25
2022-11-15T11:35:14.347Z,100994.41
2022-11-15T11:37:48.616Z,100989.72
2022-11-15T11:40:31.565Z,100991.91
2022-11-15T11:43:11.056Z,100988.41
2022-11-15T11:46:02.476Z,100982.25
2022-11-15T11:48:43.468Z,100970.28
2022-11-15T11:51:18.654Z,100971.63
2022-11-15T11:53:57.739Z,100937.81
2022-11-15T11:56:30.730Z,100971.94
2022-11-15T11:59:04.901Z,100979.75
2022-11-15T12:01:37.501Z,100972.78
2022-11-15T12:04:21.148Z,100966.28
2022-11-15T12:06:54.310Z,100968.63
2022-11-15T12:09:30.871Z,100974.94
2022-11-15T12:12:08.276Z,100982.75
2022-11-15T12:14:43.719Z,100971.59
2022-11-15T12:17:13.059Z,100979.78
2022-11-15T12:19:45.744Z,100976.28
2022-11-15T12:22:21.947Z,100967.31
2022-11-15T12:24:57.300Z,100974.25
2022-11-15T12:27:32.534Z,100977.44
2022-11-15T12:30:04.928Z,100975.09
2022-11-15T12:32:36.001Z,100963.47
2022-11-15T12:35:08.588Z,100973.78
2022-11-15T12:37:50.156Z,100979.75
2022-11-15T12:40:37.580Z,100971.28
2022-11-15T12:43:40.891Z,100964.44
2022-11-15T12:46:16.055Z,100965.75
2022-11-15T12:48:56.066Z,100967.09
2022-11-15T12:51:45.612Z,100969.75
2022-11-15T12:55:00.134Z,100988.41
2022-11-15T12:57:36.391Z,100988.94
2022-11-15T13:00:41.161Z,100987.56
2022-11-15T13:03:21.537Z,100997.06
2022-11-15T13:06:01.849Z,101001.88
2022-11-15T13:08:50.718Z,100998.88
2022-11-15T13:11:48.761Z,100996.06
2022-11-15T13:14:46.891Z,100988.41
2022-11-15T13:17:38.739Z,100983.25
2022-11-15T13:20:28.575Z,100976.44
2022-11-15T13:23:04.666Z,100984.09
2022-11-15T13:25:58.615Z,100983.44
2022-11-15T13:28:36.248Z,100980.78
2022-11-15T13:31:21.607Z,100967.47
2022-11-15T13:33:51.538Z,100977.81
2022-11-15T13:36:24.397Z,100962.47
2022-11-15T13:38:59.049Z,100981.78
2022-11-15T13:41:30.414Z,100987.59
2022-11-15T13:43:59.777Z,100989.75
2022-11-15T13:46:29.116Z,100988.41
2022-11-15T13:49:02.710Z,100985.28
2022-11-15T13:51:41.074Z,100979.44
2022-11-15T13:54:19.734Z,100991.91
2022-11-15T13:56:52.272Z,101008.19
2022-11-15T13:59:26.507Z,101002.41
2022-11-15T14:01:55.664Z,101002.72
2022-11-15T14:04:27.956Z,100990.41
2022-11-15T14:07:00.623Z,100985.94
2022-11-15T14:09:38.290Z,100976.28
2022-11-15T14:12:28.814Z,100983.25
2022-11-15T14:14:57.179Z,100983.06
2022-11-15T14:17:37.421Z,100980.25
2022-11-15T14:20:23.028Z,100983.22
2022-11-15T14:22:55.012Z,100984.53
2022-11-15T14:25:24.443Z,100988.53
2022-11-15T14:28:18.167Z,100993.19
2022-11-15T14:30:51.158Z,100978.22
2022-11-15T14:33:26.289Z,100982.03
2022-11-15T14:35:58.370Z,100990.00
2022-11-15T14:38:27.054Z,100986.50
2022-11-15T14:40:57.098Z,100983.19
2022-11-15T14:43:25.066Z,100972.53
2022-11-15T14:45:53.043Z,100973.38
2022-11-15T14:48:21.015Z,100962.91
2022-11-15T14:50:49.069Z,100976.34
2022-11-15T14:53:20.955Z,100969.41
2022-11-15T14:55:49.866Z,100974.03
2022-11-15T14:58:17.826Z,100980.34
2022-11-15T15:00:45.843Z,100972.53
2022-11-15T15:03:13.985Z,100970.72
2022-11-15T15:05:46.660Z,100968.22
2022-11-15T15:08:15.519Z,100977.03
2022-11-15T15:10:47.003Z,100971.03
2022-11-15T15:13:19.738Z,100968.22
2022-11-15T15:15:48.207Z,100968.84
2022-11-15T15:18:16.563Z,100965.34
2022-11-15T15:20:46.981Z,100964.53
2022-11-15T15:23:19.551Z,100962.88
2022-11-15T15:25:50.183Z,100975.34
2022-11-15T15:28:18.430Z,100975.50
2022-11-15T15:30:46.506Z,100967.53
2022-11-15T15:33:14.574Z,100975.50
2022-11-15T15:35:43.291Z,100968.34
2022-11-15T15:38:14.163Z,100972.69
2022-11-15T15:40:42.175Z,100976.34
2022-11-15T15:43:11.597Z,100974.66
2022-11-15T15:45:40.919Z,100966.53
2022-11-15T15:48:13.532Z,100981.66
2022-11-15T15:50:41.548Z,100977.63
2022-11-15T15:53:11.356Z,100982.28
2022-11-15T15:55:40.122Z,100965.81
2022-11-15T15:58:09.307Z,100977.63
2022-11-15T16:00:40.031Z,100990.22
2022-11-15T16:03:08.092Z,100990.38
2022-11-15T16:05:36.429Z,100981.44
2022-11-15T16:08:04.529Z,100987.56
2022-11-15T16:10:35.887Z,100998.03
2022-11-15T16:13:03.924Z,101002.69
2022-11-15T16:15:33.274Z,100996.53
2022-11-15T16:18:03.437Z,100999.34
2022-11-15T16:20:40.433Z,101005.81
2022-11-15T16:23:10.202Z,101007.09
2022-11-15T16:25:42.194Z,101001.31
2022-11-15T16:28:21.913Z,101000.78
2022-11-15T16:30:55.534Z,101004.72
2022-11-15T16:33:26.331Z,101003.22
2022-11-15T16:35:54.828Z,101009.03
2022-11-15T16:38:23.965Z,100997.88
2022-11-15T16:40:52.063Z,101000.69
2022-11-15T16:43:33.083Z,101017.47
2022-11-15T16:46:13.572Z,101011.47
2022-11-15T16:48:43.163Z,101018.59
2022-11-15T16:51:12.169Z,101006.16
2022-11-15T16:53:40.659Z,101004.47
2022-11-15T16:56:20.155Z,100998.34
2022-11-15T16:58:48.137Z,101002.81
2022-11-15T17:01:21.187Z,100988.88
2022-11-15T17:03:50.718Z,100987.91
2022-11-15T17:06:19.528Z,100989.53
2022-11-15T17:08:48.210Z,100995.88
2022-11-15T17:11:17.851Z,100992.88
2022-11-15T17:13:46.897Z,100993.72
2022-11-15T17:16:16.675Z,101009.78
2022-11-15T17:18:46.118Z,101011.63
2022-11-15T17:21:17.275Z,101008.47
2022-11-15T17:23:45.522Z,101012.78
2022-11-15T17:26:29.671Z,101002.31
2022-11-15T17:29:01.793Z,100997.00
2022-11-15T17:31:33.779Z,100998.53
2022-11-15T17:34:02.738Z,100991.53
2022-11-15T17:36:32.400Z,101007.28
2022-11-15T17:39:01.434Z,100989.03
2022-11-15T17:41:30.338Z,100997.84
2022-11-15T17:44:00.233Z,100980.91
2022-11-15T17:46:29.604Z,100989.19
2022-11-15T17:48:58.680Z,100986.38
2022-11-15T17:51:27.179Z,100986.38
2022-11-15T17:53:56.897Z,100980.91
2022-11-15T17:56:27.096Z,100989.53
2022-11-15T17:58:57.641Z,100985.25
2022-11-15T18:01:27.730Z,100989.53
2022-11-15T18:03:57.013Z,100990.56
2022-11-15T18:06:25.967Z,100981.91
2022-11-15T18:08:56.873Z,100982.59
2022-11-15T18:11:26.966Z,100976.25
2022-11-15T18:13:56.865Z,100981.41
2022-11-15T18:16:27.460Z,100979.75
2022-11-15T18:18:56.507Z,100979.94
2022-11-15T18:21:26.921Z,100989.88
2022-11-15T18:23:58.883Z,100988.22
2022-11-15T18:26:28.953Z,100997.16
2022-11-15T18:28:59.020Z,100997.47
2022-11-15T18:31:29.909Z,100998.47
2022-11-15T18:34:00.982Z,100993.97
2022-11-15T18:36:32.009Z,100998.31
2022-11-15T18:39:04.727Z,100996.78
2022-11-15T18:41:34.775Z,100997.78
2022-11-15T18:44:03.771Z,100998.47
2022-11-15T18:46:33.327Z,100990.66
2022-11-15T18:49:03.390Z,101002.09
2022-11-15T18:51:32.558Z,101016.22
2022-11-15T18:54:03.172Z,101002.94
2022-11-15T18:56:32.631Z,101012.72
2022-11-15T18:59:03.189Z,101003.75
2022-11-15T19:01:34.033Z,101004.75
2022-11-15T19:04:06.208Z,101008.50
2022-11-15T19:06:38.734Z,101007.88
2022-11-15T19:09:08.879Z,101017.66
2022-11-15T19:11:39.777Z,101013.19
2022-11-15T19:14:09.772Z,101017.47
2022-11-15T19:16:39.529Z,101022.78
2022-11-15T19:19:09.580Z,101024.63
2022-11-15T19:21:38.412Z,101032.75
2022-11-15T19:24:08.392Z,101018.78
2022-11-15T19:26:37.922Z,101022.28
2022-11-15T19:29:07.614Z,101028.56
2022-11-15T19:31:37.063Z,101025.78
2022-11-15T19:34:06.832Z,101022.28
2022-11-15T19:36:37.542Z,101019.47
2022-11-15T19:39:10.178Z,101028.94
2022-11-15T19:41:39.787Z,101026.00
2022-11-15T19:44:07.808Z,101030.16
2022-11-15T19:46:36.504Z,101024.72
2022-11-15T19:49:05.080Z,101025.53
2022-11-15T19:51:33.015Z,101012.94
2022-11-15T19:54:06.521Z,101015.75
2022-11-15T19:56:36.410Z,101012.94
2022-11-15T19:59:05.549Z,101027.06
2022-11-15T20:01:36.337Z,101021.06
2022-11-15T20:04:04.814Z,101015.91
2022-11-15T20:06:40.322Z,101003.63
2022-11-15T20:09:08.674Z,101024.84
2022-11-15T20:11:39.486Z,101020.38
2022-11-15T20:14:09.538Z,101015.75
2022-11-15T20:16:37.548Z,101016.44
2022-11-15T20:19:06.077Z,101014.47
2022-11-15T20:21:36.547Z,101018.94
2022-11-15T20:24:04.946Z,101016.94
2022-11-15T20:26:32.985Z,101016.63
2022-11-15T20:29:03.524Z,101008.50
2022-11-15T20:31:32.211Z,101006.00
2022-11-15T20:34:00.471Z,101005.00
2022-11-15T20:36:28.982Z,100998.88
2022-11-15T20:38:59.399Z,101001.38
2022-11-15T20:41:28.115Z,101008.50
2022-11-15T20:43:56.245Z,100998.72
2022-11-15T20:46:25.569Z,100992.56
2022-11-15T20:48:53.545Z,101002.19
2022-11-15T20:51:21.676Z,100992.09
2022-11-15T20:53:50.311Z,101002.56
2022-11-15T20:56:19.717Z,100995.59
2022-11-15T20:58:50.238Z,100994.75
2022-11-15T21:01:23.760Z,101002.03
2022-11-15T21:03:53.769Z,100996.44
2022-11-15T21:06:22.532Z,100995.06
2022-11-15T21:09:11.100Z,101016.31
2022-11-15T21:11:57.032Z,101009.03
2022-11-15T21:14:25.215Z,101010.16
2022-11-15T21:16:53.162Z,101017.31
2022-11-15T21:19:28.808Z,101008.19
2022-11-15T21:22:00.698Z,101002.03
2022-11-15T21:24:28.765Z,100999.69
2022-11-15T21:26:56.780Z,101009.63
2022-11-15T21:29:24.971Z,101017.13
2022-11-15T21:31:54.042Z,101014.75
2022-11-15T21:34:23.472Z,101023.03
2022-11-15T21:36:51.506Z,101012.16
2022-11-15T21:39:19.834Z,101018.94
2022-11-15T21:41:47.787Z,101005.28
2022-11-15T21:44:19.548Z,101014.41
2022-11-15T21:46:47.490Z,101008.28
2022-11-15T21:49:15.720Z,101018.72
2022-11-15T21:51:45.160Z,101008.59
2022-11-15T21:54:13.142Z,101024.50
2022-11-15T21:56:41.851Z,101016.00
2022-11-15T21:59:09.921Z,101017.00
2022-11-15T22:01:55.707Z,101018.00
2022-11-15T22:04:24.247Z,101012.84
2022-11-15T22:06:53.740Z,101018.13
2022-11-15T22:09:21.799Z,101018.00
2022-11-15T22:11:49.755Z,101017.16
2022-11-15T22:14:17.896Z,101020.50
2022-11-15T22:16:45.847Z,101022.00
2022-11-15T22:19:14.269Z,101017.53
2022-11-15T22:21:42.255Z,101012.91
2022-11-15T22:24:11.677Z,101010.94
2022-11-15T22:26:40.415Z,101009.91
2022-11-15T22:29:08.684Z,101004.59
2022-11-15T22:31:36.623Z,101021.56
2022-11-15T22:34:04.835Z,101019.88
2022-11-15T22:36:52.178Z,101015.22
2022-11-15T22:39:23.579Z,101019.69
2022-11-15T22:41:51.577Z,101022.69
2022-11-15T22:44:19.581Z,101024.50
2022-11-15T22:46:47.522Z,101016.84
2022-11-15T22:49:15.462Z,101016.84
2022-11-15T22:51:43.440Z,101024.97
2022-11-15T22:54:11.435Z,101023.00
2022-11-15T22:56:40.790Z,101032.78
2022-11-15T22:59:08.705Z,101023.00
2022-11-15T23:01:36.800Z,101026.94
2022-11-15T23:04:05.005Z,101019.97
2022-11-15T23:06:33.044Z,101017.31
2022-11-15T23:09:01.071Z,101019.28
2022-11-15T23:11:46.685Z,101020.44
2022-11-15T23:14:16.007Z,101035.69
2022-11-15T23:16:44.008Z,101040.44
2022-11-15T23:19:13.563Z,101018.53
2022-11-15T23:22:00.683Z,101035.59
2022-11-15T23:24:29.218Z,101035.25
2022-11-15T23:27:00.004Z,101022.13
2022-11-15T23:29:30.791Z,101014.31
2022-11-15T23:32:16.170Z,101014.47
2022-11-15T23:34:46.236Z,101018.41
2022-11-15T23:37:16.375Z,101010.91
2022-11-15T23:39:44.299Z,101009.53
2022-11-15T23:42:19.815Z,101020.31
2022-11-15T23:44:50.842Z,101013.47
2022-11-15T23:47:19.218Z,101021.06
2022-11-15T23:49:47.372Z,101019.09
2022-11-15T23:52:17.117Z,101019.94
2022-11-15T23:54:45.464Z,101020.59
2022-11-15T23:57:13.608Z,101014.00
2022-11-15T23:59:43.487Z,101019.84
